Patriot — WDC2859 — position and weather

sailwx.info

Track history (hours):
 
Tides and Currents Weather Stations Pressure Air Temp Water Temp Dewpoint Dewpoint Depression Visibility Wind Speed Wind Dir Waves Ship Positions

Patriot

Owner: AMNAV Maritime Corporation, Oakland, CA. More information available from US FCC via Universal Licensing System and Coast Guard Vessel Documentation Center.

Last reported at 2015-Aug-31 04:33 UTC. Time now 2015-Aug-31 04:47 UTC.
Position N 37°49' W 122°19'.

Length 31 m; draft 4.6 m.

Type: Tug. MMSI: 366998680.

Date/timePositionNaut miles runAvg speedWind from/ knotsBaromVisibWave heightAir tempDewpointWater temp
2015-Aug-31 04:33N 37°49' W 122°19'0 0.0
2015-Aug-31 03:34N 37°49' W 122°19'0 0.0
2015-Aug-31 02:33N 37°49' W 122°19'1 1.0
2015-Aug-31 01:33N 37°49' W 122°20'1 0.7
2015-Aug-31 00:33N 37°49' W 122°19'6 6.0
2015-Aug-30 23:33N 37°54' W 122°23'0 0.2
2015-Aug-30 22:33N 37°54' W 122°23'0 0.4
2015-Aug-30 21:33N 37°54' W 122°22'1 0.8
2015-Aug-30 20:33N 37°55' W 122°22'0 0.0
2015-Aug-30 19:33N 37°55' W 122°22'0 0.0
2015-Aug-30 18:33N 37°55' W 122°22'0 0.0
2015-Aug-30 17:33N 37°55' W 122°22'5 4.8
2015-Aug-30 16:33N 37°50' W 122°22'4 3.6
2015-Aug-30 15:33N 37°48' W 122°19'0 0.0
2015-Aug-30 14:33N 37°48' W 122°19'2 1.6
2015-Aug-30 13:33N 37°49' W 122°19'0 0.2
2015-Aug-30 12:33N 37°49' W 122°19'0 0.0
2015-Aug-30 11:33N 37°49' W 122°19'0 0.0
2015-Aug-30 10:33N 37°49' W 122°19'0 0.0
2015-Aug-30 09:34N 37°49' W 122°19'0 0.0
2015-Aug-30 08:34N 37°49' W 122°19'0 0.0
2015-Aug-30 07:34N 37°49' W 122°19'0 0.0
2015-Aug-30 06:33N 37°49' W 122°19'0 0.0
2015-Aug-30 05:33N 37°49' W 122°19'0 0.0
2015-Aug-30 04:33N 37°49' W 122°19'0 0.0
2015-Aug-30 03:33N 37°49' W 122°19'0 0.0
2015-Aug-30 02:34N 37°49' W 122°19'0 0.0
2015-Aug-30 01:33N 37°49' W 122°19'0 0.0
2015-Aug-30 00:33N 37°49' W 122°19'2 1.6
2015-Aug-29 23:33N 37°48' W 122°19'2 2.4
2015-Aug-29 22:33N 37°48' W 122°22'3 2.9
2015-Aug-29 21:34N 37°49' W 122°19'0 0.0
2015-Aug-29 20:33N 37°49' W 122°19'0 0.0
2015-Aug-29 19:34N 37°49' W 122°19'0 0.0
2015-Aug-29 18:34N 37°49' W 122°19'0 0.0
2015-Aug-29 17:33N 37°49' W 122°19'0 0.0
2015-Aug-29 16:33N 37°49' W 122°19'0 0.0
2015-Aug-29 15:33N 37°49' W 122°19'0 0.0
2015-Aug-29 14:33N 37°49' W 122°19'1 0.8
2015-Aug-29 13:32N 37°49' W 122°20'1 1.3
2015-Aug-29 12:34N 37°48' W 122°21'2 2.1
2015-Aug-29 11:33N 37°49' W 122°19'0 0.0
2015-Aug-29 10:33N 37°49' W 122°19'0 0.0
2015-Aug-29 09:33N 37°49' W 122°19'0 0.0
2015-Aug-29 08:33N 37°49' W 122°19'0 0.0
2015-Aug-29 07:33N 37°49' W 122°19'0 0.0
2015-Aug-29 06:33N 37°49' W 122°19'0 0.0
2015-Aug-29 05:33N 37°49' W 122°19'0 0.0
2015-Aug-29 04:34N 37°49' W 122°19'0 0.0
2015-Aug-29 03:34N 37°49' W 122°19'0 0.0
2015-Aug-29 02:33N 37°49' W 122°19'0 0.0
2015-Aug-29 01:33N 37°49' W 122°19'0 0.0
2015-Aug-29 00:33N 37°49' W 122°19'0 0.0
2015-Aug-28 23:33N 37°49' W 122°19'0 0.0
2015-Aug-28 22:33N 37°49' W 122°19'0 0.0
2015-Aug-28 21:33N 37°49' W 122°19'0 0.0
2015-Aug-28 20:33N 37°49' W 122°19'0 0.0
2015-Aug-28 19:33N 37°49' W 122°19'2 2.4
2015-Aug-28 18:34N 37°50' W 122°22'5 5.1
2015-Aug-28 17:33N 37°55' W 122°22'0 0.2
2015-Aug-28 16:34N 37°55' W 122°22'2 1.8
2015-Aug-28 15:33N 37°54' W 122°24'1 0.6
2015-Aug-28 14:33N 37°54' W 122°23'0 0.0
2015-Aug-28 13:33N 37°54' W 122°23'0 0.0
2015-Aug-28 12:33N 37°54' W 122°23'1 1.2
2015-Aug-28 11:33N 37°54' W 122°22'1 1.2
2015-Aug-28 10:34N 37°54' W 122°23'0 0.0
2015-Aug-28 09:34N 37°54' W 122°23'0 0.0
2015-Aug-28 08:33N 37°54' W 122°23'0 0.0
2015-Aug-28 07:33N 37°54' W 122°23'2 1.9
2015-Aug-28 06:34N 37°55' W 122°25'3 2.7
2015-Aug-28 05:34N 37°55' W 122°22'0 0.2
2015-Aug-28 04:34N 37°55' W 122°22'0 0.0
2015-Aug-28 03:33N 37°55' W 122°22'0 0.4
2015-Aug-28 02:33N 37°55' W 122°22'1 1.2
2015-Aug-28 01:34N 37°54' W 122°23'6 6.0
2015-Aug-28 00:33N 37°49' W 122°19'0 0.0
2015-Aug-27 23:33N 37°49' W 122°19'0 0.0
2015-Aug-27 22:34N 37°49' W 122°19'0 0.0
2015-Aug-27 21:33N 37°49' W 122°19'0 0.0
2015-Aug-27 20:33N 37°49' W 122°19'0 0.0
2015-Aug-27 19:33N 37°49' W 122°19'0 0.0
2015-Aug-27 18:33N 37°49' W 122°19'0 0.0
2015-Aug-27 17:33N 37°49' W 122°19'0 0.0
2015-Aug-27 16:33N 37°49' W 122°19'0 0.0
2015-Aug-27 15:33N 37°49' W 122°19'0 0.0
2015-Aug-27 14:33N 37°49' W 122°19'0 0.0
2015-Aug-27 13:33N 37°49' W 122°19'0 0.0
2015-Aug-27 12:33N 37°49' W 122°19'0 0.0
2015-Aug-27 11:33N 37°49' W 122°19'0 0.0
2015-Aug-27 10:33N 37°49' W 122°19'0 0.0
2015-Aug-27 09:33N 37°49' W 122°19'0 0.0
2015-Aug-27 08:33N 37°49' W 122°19'0 0.0
2015-Aug-27 07:33N 37°49' W 122°19'0 0.0
2015-Aug-27 06:33N 37°49' W 122°19'0 0.0
2015-Aug-27 05:33N 37°49' W 122°19'0 0.0
2015-Aug-27 04:33N 37°49' W 122°19'0 0.2
2015-Aug-27 03:33N 37°49' W 122°19'1 0.7
2015-Aug-27 02:33N 37°49' W 122°20'1 0.6
2015-Aug-27 01:33N 37°49' W 122°19'0 0.4
2015-Aug-27 00:33N 37°49' W 122°19'0 0.0
2015-Aug-26 23:33N 37°49' W 122°19'0 0.0
2015-Aug-26 22:33N 37°49' W 122°19'0 0.0
2015-Aug-26 21:33N 37°49' W 122°19'1 1.3
2015-Aug-26 20:33N 37°49' W 122°20'1 1.3
2015-Aug-26 19:33N 37°49' W 122°19'0 0.0
2015-Aug-26 18:34N 37°49' W 122°19'0 0.0
2015-Aug-26 17:34N 37°49' W 122°19'0 0.0
2015-Aug-26 16:34N 37°49' W 122°19'0 0.0
2015-Aug-26 15:34N 37°49' W 122°19'0 0.0
2015-Aug-26 14:34N 37°49' W 122°19'0 0.4
2015-Aug-26 13:33N 37°49' W 122°19'0 0.5
2015-Aug-26 12:33N 37°49' W 122°20'1 0.9
2015-Aug-26 11:33N 37°49' W 122°19'0 0.0
2015-Aug-26 10:33N 37°49' W 122°19'0 0.0
2015-Aug-26 09:33N 37°49' W 122°19'0 0.0
2015-Aug-26 08:33N 37°49' W 122°19'0 0.0
2015-Aug-26 07:33N 37°49' W 122°19'0 0.0
2015-Aug-26 06:33N 37°49' W 122°19'0 0.0
2015-Aug-26 05:33N 37°49' W 122°19'0 0.0
2015-Aug-26 04:33N 37°49' W 122°19'0 0.0
2015-Aug-26 03:33N 37°49' W 122°19'0 0.0
2015-Aug-26 02:33N 37°49' W 122°19'0 0.0
2015-Aug-26 01:33N 37°49' W 122°19'2 1.8
2015-Aug-26 00:33N 37°48' W 122°18'2 1.7
2015-Aug-25 23:33N 37°49' W 122°19'2 1.7
2015-Aug-25 22:33N 37°48' W 122°18'0 0.1
2015-Aug-25 21:33N 37°48' W 122°18'1 0.5
2015-Aug-25 20:33N 37°48' W 122°17'0 0.0
2015-Aug-25 19:33N 37°48' W 122°17'0 0.0
2015-Aug-25 18:33N 37°48' W 122°17'6 6.5
2015-Aug-25 17:33N 37°52' W 122°23'4 4.0
2015-Aug-25 16:33N 37°56' W 122°25'4 3.6
2015-Aug-25 15:33N 37°52' W 122°24'5 4.6
2015-Aug-25 14:33N 37°48' W 122°21'0 0.0
2015-Aug-25 13:33N 37°48' W 122°21'1 1.0
2015-Aug-25 12:33N 37°49' W 122°19'0 0.3
2015-Aug-25 11:33N 37°49' W 122°20'1 1.1
2015-Aug-25 10:33N 37°49' W 122°19'0 0.0
2015-Aug-25 09:34N 37°49' W 122°19'0 0.0
2015-Aug-25 08:33N 37°49' W 122°19'0 0.0
2015-Aug-25 07:34N 37°49' W 122°19'0 0.0
2015-Aug-25 06:34N 37°49' W 122°19'0 0.0
2015-Aug-25 05:33N 37°49' W 122°19'0 0.0
2015-Aug-25 04:34N 37°49' W 122°19'5 5.0
2015-Aug-25 03:33N 37°52' W 122°24'3 3.3
2015-Aug-25 02:33N 37°55' W 122°22'2 1.9
2015-Aug-25 01:34N 37°55' W 122°24'5 5.5
2015-Aug-25 00:33N 37°50' W 122°22'2 1.6
2015-Aug-24 23:33N 37°48' W 122°20'1 0.6
2015-Aug-24 22:33N 37°49' W 122°20'1 0.9
2015-Aug-24 21:33N 37°49' W 122°19'0 0.1
2015-Aug-24 20:33N 37°49' W 122°19'0 0.0
2015-Aug-24 19:33N 37°49' W 122°19'0 0.0
2015-Aug-24 18:33N 37°49' W 122°19'2 1.7
2015-Aug-24 17:33N 37°48' W 122°19'1 0.9
2015-Aug-24 16:33N 37°48' W 122°17'2 1.9
2015-Aug-24 15:33N 37°49' W 122°19'1 0.5
2015-Aug-24 14:33N 37°49' W 122°19'0 0.0
2015-Aug-24 13:34N 37°49' W 122°19'0 0.0
2015-Aug-24 12:33N 37°49' W 122°19'0 0.0
2015-Aug-24 11:33N 37°49' W 122°19'0 0.0
2015-Aug-24 10:33N 37°49' W 122°19'0 0.0
2015-Aug-24 09:34N 37°49' W 122°19'0 0.0
2015-Aug-24 08:34N 37°49' W 122°19'0 0.0
2015-Aug-24 07:33N 37°49' W 122°19'0 0.0
2015-Aug-24 06:34N 37°49' W 122°19'0 0.0
2015-Aug-24 05:34N 37°49' W 122°19'0 0.0
2015-Aug-24 04:33N 37°49' W 122°19'0 0.0
2015-Aug-24 03:34N 37°49' W 122°19'0 0.0
2015-Aug-24 02:34N 37°49' W 122°19'0 0.0
2015-Aug-24 01:33N 37°49' W 122°19'0 0.0
2015-Aug-24 00:34N 37°49' W 122°19'0 0.0
2015-Aug-23 23:34N 37°49' W 122°19'0 0.0
2015-Aug-23 22:33N 37°49' W 122°19'0 0.0
2015-Aug-23 21:34N 37°49' W 122°19'0 0.0
2015-Aug-23 20:34N 37°49' W 122°19'0 0.0
2015-Aug-23 19:34N 37°49' W 122°19'0 0.0
2015-Aug-23 18:33N 37°49' W 122°19'0 0.0
2015-Aug-23 17:34N 37°49' W 122°19'0 0.0
2015-Aug-23 16:34N 37°49' W 122°19'0 0.0
2015-Aug-23 15:34N 37°49' W 122°19'0 0.0
2015-Aug-23 14:33N 37°49' W 122°19'0 0.2
2015-Aug-23 13:33N 37°49' W 122°19'1 1.3
2015-Aug-23 12:33N 37°49' W 122°20'2 1.5
2015-Aug-23 11:33N 37°49' W 122°19'0 0.0
2015-Aug-23 10:33N 37°49' W 122°19'0 0.0
2015-Aug-23 09:33N 37°49' W 122°19'0 0.0
2015-Aug-23 08:33N 37°49' W 122°19'0 0.0
2015-Aug-23 07:33N 37°49' W 122°19'0 0.0
2015-Aug-23 06:33N 37°49' W 122°19'0 0.0
2015-Aug-23 05:33N 37°49' W 122°19'0 0.0
2015-Aug-23 04:33N 37°49' W 122°19'0 0.0
2015-Aug-23 03:33N 37°49' W 122°19'0 0.0
2015-Aug-23 02:33N 37°49' W 122°19'0 0.0
2015-Aug-23 01:33N 37°49' W 122°19'0 0.0
2015-Aug-23 00:33N 37°49' W 122°19'0 0.0
2015-Aug-22 23:33N 37°49' W 122°19'1 1.0
2015-Aug-22 22:33N 37°49' W 122°20'1 0.7
2015-Aug-22 21:33N 37°48' W 122°21'7 6.7
2015-Aug-22 20:34N 37°54' W 122°25'2 2.4
2015-Aug-22 19:33N 37°54' W 122°22'5 4.9
2015-Aug-22 18:33N 37°49' W 122°22'2 2.3
2015-Aug-22 17:33N 37°49' W 122°19'0 0.0
2015-Aug-22 16:33N 37°49' W 122°19'0 0.0
2015-Aug-22 15:33N 37°49' W 122°19'0 0.0
2015-Aug-22 14:33N 37°49' W 122°19'0 0.0
2015-Aug-22 13:33N 37°49' W 122°19'0 0.5
2015-Aug-22 12:34N 37°49' W 122°19'6 6.4
2015-Aug-22 11:34N 37°54' W 122°23'1 1.1
2015-Aug-22 10:34N 37°54' W 122°22'2 2.4
2015-Aug-22 09:34N 37°54' W 122°25'1 1.5
2015-Aug-22 08:34N 37°54' W 122°23'0 0.0
2015-Aug-22 07:34N 37°54' W 122°23'0 0.0
2015-Aug-22 06:34N 37°54' W 122°23'0 0.0
2015-Aug-22 05:34N 37°54' W 122°23'0 0.0
2015-Aug-22 04:34N 37°54' W 122°23'0 0.0
2015-Aug-22 03:34N 37°54' W 122°23'1 1.1
2015-Aug-22 02:34N 37°55' W 122°22'6 6.1
2015-Aug-22 01:33N 37°49' W 122°20'1 1.2
2015-Aug-22 00:33N 37°49' W 122°19'0 0.0
2015-Aug-21 23:33N 37°49' W 122°19'0 0.0
2015-Aug-21 22:33N 37°49' W 122°19'0 0.0
2015-Aug-21 21:33N 37°49' W 122°19'0 0.0
2015-Aug-21 20:33N 37°49' W 122°19'0 0.0
2015-Aug-21 19:33N 37°49' W 122°19'0 0.0
2015-Aug-21 18:33N 37°49' W 122°19'0 0.0
2015-Aug-21 17:33N 37°49' W 122°19'0 0.0
2015-Aug-21 16:34N 37°49' W 122°19'0 0.0
2015-Aug-21 15:33N 37°49' W 122°19'0 0.0
2015-Aug-21 14:33N 37°49' W 122°19'0 0.0
2015-Aug-21 13:33N 37°49' W 122°19'0 0.0
2015-Aug-21 12:33N 37°49' W 122°19'0 0.0
2015-Aug-21 11:33N 37°49' W 122°19'0 0.0
2015-Aug-21 10:33N 37°49' W 122°19'0 0.0
2015-Aug-21 09:33N 37°49' W 122°19'0 0.0
2015-Aug-21 08:33N 37°49' W 122°19'0 0.0
2015-Aug-21 07:33N 37°49' W 122°19'0 0.0
2015-Aug-21 06:33N 37°49' W 122°19'0 0.0
2015-Aug-21 05:33N 37°49' W 122°19'0 0.0
2015-Aug-21 04:33N 37°49' W 122°19'  
Track history (hours):
 
Tides and Currents Weather Stations Pressure Air Temp Water Temp Dewpoint Dewpoint Depression Visibility Wind Speed Wind Dir Waves Ship Positions

Patriot

Owner: AMNAV Maritime Corporation, Oakland, CA. More information available from US FCC via Universal Licensing System and Coast Guard Vessel Documentation Center.

Last reported at 2015-Aug-31 04:33 UTC. Time now 2015-Aug-31 04:47 UTC.
Position N 37°49' W 122°19'.

Length 31 m; draft 4.6 m.

Type: Tug. MMSI: 366998680.

Date/timePositionNaut miles runAvg speedWind from/ knotsBaromVisibWave heightAir tempDewpointWater temp
2015-Aug-31 04:33N 37°49' W 122°19'0 0.0
2015-Aug-31 03:34N 37°49' W 122°19'0 0.0
2015-Aug-31 02:33N 37°49' W 122°19'1 1.0
2015-Aug-31 01:33N 37°49' W 122°20'1 0.7
2015-Aug-31 00:33N 37°49' W 122°19'6 6.0
2015-Aug-30 23:33N 37°54' W 122°23'0 0.2
2015-Aug-30 22:33N 37°54' W 122°23'0 0.4
2015-Aug-30 21:33N 37°54' W 122°22'1 0.8
2015-Aug-30 20:33N 37°55' W 122°22'0 0.0
2015-Aug-30 19:33N 37°55' W 122°22'0 0.0
2015-Aug-30 18:33N 37°55' W 122°22'0 0.0
2015-Aug-30 17:33N 37°55' W 122°22'5 4.8
2015-Aug-30 16:33N 37°50' W 122°22'4 3.6
2015-Aug-30 15:33N 37°48' W 122°19'0 0.0
2015-Aug-30 14:33N 37°48' W 122°19'2 1.6
2015-Aug-30 13:33N 37°49' W 122°19'0 0.2
2015-Aug-30 12:33N 37°49' W 122°19'0 0.0
2015-Aug-30 11:33N 37°49' W 122°19'0 0.0
2015-Aug-30 10:33N 37°49' W 122°19'0 0.0
2015-Aug-30 09:34N 37°49' W 122°19'0 0.0
2015-Aug-30 08:34N 37°49' W 122°19'0 0.0
2015-Aug-30 07:34N 37°49' W 122°19'0 0.0
2015-Aug-30 06:33N 37°49' W 122°19'0 0.0
2015-Aug-30 05:33N 37°49' W 122°19'0 0.0
2015-Aug-30 04:33N 37°49' W 122°19'0 0.0
2015-Aug-30 03:33N 37°49' W 122°19'0 0.0
2015-Aug-30 02:34N 37°49' W 122°19'0 0.0
2015-Aug-30 01:33N 37°49' W 122°19'0 0.0
2015-Aug-30 00:33N 37°49' W 122°19'2 1.6
2015-Aug-29 23:33N 37°48' W 122°19'2 2.4
2015-Aug-29 22:33N 37°48' W 122°22'3 2.9
2015-Aug-29 21:34N 37°49' W 122°19'0 0.0
2015-Aug-29 20:33N 37°49' W 122°19'0 0.0
2015-Aug-29 19:34N 37°49' W 122°19'0 0.0
2015-Aug-29 18:34N 37°49' W 122°19'0 0.0
2015-Aug-29 17:33N 37°49' W 122°19'0 0.0
2015-Aug-29 16:33N 37°49' W 122°19'0 0.0
2015-Aug-29 15:33N 37°49' W 122°19'0 0.0
2015-Aug-29 14:33N 37°49' W 122°19'1 0.8
2015-Aug-29 13:32N 37°49' W 122°20'1 1.3
2015-Aug-29 12:34N 37°48' W 122°21'2 2.1
2015-Aug-29 11:33N 37°49' W 122°19'0 0.0
2015-Aug-29 10:33N 37°49' W 122°19'0 0.0
2015-Aug-29 09:33N 37°49' W 122°19'0 0.0
2015-Aug-29 08:33N 37°49' W 122°19'0 0.0
2015-Aug-29 07:33N 37°49' W 122°19'0 0.0
2015-Aug-29 06:33N 37°49' W 122°19'0 0.0
2015-Aug-29 05:33N 37°49' W 122°19'0 0.0
2015-Aug-29 04:34N 37°49' W 122°19'0 0.0
2015-Aug-29 03:34N 37°49' W 122°19'0 0.0
2015-Aug-29 02:33N 37°49' W 122°19'0 0.0
2015-Aug-29 01:33N 37°49' W 122°19'0 0.0
2015-Aug-29 00:33N 37°49' W 122°19'0 0.0
2015-Aug-28 23:33N 37°49' W 122°19'0 0.0
2015-Aug-28 22:33N 37°49' W 122°19'0 0.0
2015-Aug-28 21:33N 37°49' W 122°19'0 0.0
2015-Aug-28 20:33N 37°49' W 122°19'0 0.0
2015-Aug-28 19:33N 37°49' W 122°19'2 2.4
2015-Aug-28 18:34N 37°50' W 122°22'5 5.1
2015-Aug-28 17:33N 37°55' W 122°22'0 0.2
2015-Aug-28 16:34N 37°55' W 122°22'2 1.8
2015-Aug-28 15:33N 37°54' W 122°24'1 0.6
2015-Aug-28 14:33N 37°54' W 122°23'0 0.0
2015-Aug-28 13:33N 37°54' W 122°23'0 0.0
2015-Aug-28 12:33N 37°54' W 122°23'1 1.2
2015-Aug-28 11:33N 37°54' W 122°22'1 1.2
2015-Aug-28 10:34N 37°54' W 122°23'0 0.0
2015-Aug-28 09:34N 37°54' W 122°23'0 0.0
2015-Aug-28 08:33N 37°54' W 122°23'0 0.0
2015-Aug-28 07:33N 37°54' W 122°23'2 1.9
2015-Aug-28 06:34N 37°55' W 122°25'3 2.7
2015-Aug-28 05:34N 37°55' W 122°22'0 0.2
2015-Aug-28 04:34N 37°55' W 122°22'0 0.0
2015-Aug-28 03:33N 37°55' W 122°22'0 0.4
2015-Aug-28 02:33N 37°55' W 122°22'1 1.2
2015-Aug-28 01:34N 37°54' W 122°23'6 6.0
2015-Aug-28 00:33N 37°49' W 122°19'0 0.0
2015-Aug-27 23:33N 37°49' W 122°19'0 0.0
2015-Aug-27 22:34N 37°49' W 122°19'0 0.0
2015-Aug-27 21:33N 37°49' W 122°19'0 0.0
2015-Aug-27 20:33N 37°49' W 122°19'0 0.0
2015-Aug-27 19:33N 37°49' W 122°19'0 0.0
2015-Aug-27 18:33N 37°49' W 122°19'0 0.0
2015-Aug-27 17:33N 37°49' W 122°19'0 0.0
2015-Aug-27 16:33N 37°49' W 122°19'0 0.0
2015-Aug-27 15:33N 37°49' W 122°19'0 0.0
2015-Aug-27 14:33N 37°49' W 122°19'0 0.0
2015-Aug-27 13:33N 37°49' W 122°19'0 0.0
2015-Aug-27 12:33N 37°49' W 122°19'0 0.0
2015-Aug-27 11:33N 37°49' W 122°19'0 0.0
2015-Aug-27 10:33N 37°49' W 122°19'0 0.0
2015-Aug-27 09:33N 37°49' W 122°19'0 0.0
2015-Aug-27 08:33N 37°49' W 122°19'0 0.0
2015-Aug-27 07:33N 37°49' W 122°19'0 0.0
2015-Aug-27 06:33N 37°49' W 122°19'0 0.0
2015-Aug-27 05:33N 37°49' W 122°19'0 0.0
2015-Aug-27 04:33N 37°49' W 122°19'0 0.2
2015-Aug-27 03:33N 37°49' W 122°19'1 0.7
2015-Aug-27 02:33N 37°49' W 122°20'1 0.6
2015-Aug-27 01:33N 37°49' W 122°19'0 0.4
2015-Aug-27 00:33N 37°49' W 122°19'0 0.0
2015-Aug-26 23:33N 37°49' W 122°19'0 0.0
2015-Aug-26 22:33N 37°49' W 122°19'0 0.0
2015-Aug-26 21:33N 37°49' W 122°19'1 1.3
2015-Aug-26 20:33N 37°49' W 122°20'1 1.3
2015-Aug-26 19:33N 37°49' W 122°19'0 0.0
2015-Aug-26 18:34N 37°49' W 122°19'0 0.0
2015-Aug-26 17:34N 37°49' W 122°19'0 0.0
2015-Aug-26 16:34N 37°49' W 122°19'0 0.0
2015-Aug-26 15:34N 37°49' W 122°19'0 0.0
2015-Aug-26 14:34N 37°49' W 122°19'0 0.4
2015-Aug-26 13:33N 37°49' W 122°19'0 0.5
2015-Aug-26 12:33N 37°49' W 122°20'1 0.9
2015-Aug-26 11:33N 37°49' W 122°19'0 0.0
2015-Aug-26 10:33N 37°49' W 122°19'0 0.0
2015-Aug-26 09:33N 37°49' W 122°19'0 0.0
2015-Aug-26 08:33N 37°49' W 122°19'0 0.0
2015-Aug-26 07:33N 37°49' W 122°19'0 0.0
2015-Aug-26 06:33N 37°49' W 122°19'0 0.0
2015-Aug-26 05:33N 37°49' W 122°19'0 0.0
2015-Aug-26 04:33N 37°49' W 122°19'0 0.0
2015-Aug-26 03:33N 37°49' W 122°19'0 0.0
2015-Aug-26 02:33N 37°49' W 122°19'0 0.0
2015-Aug-26 01:33N 37°49' W 122°19'2 1.8
2015-Aug-26 00:33N 37°48' W 122°18'2 1.7
2015-Aug-25 23:33N 37°49' W 122°19'2 1.7
2015-Aug-25 22:33N 37°48' W 122°18'0 0.1
2015-Aug-25 21:33N 37°48' W 122°18'1 0.5
2015-Aug-25 20:33N 37°48' W 122°17'0 0.0
2015-Aug-25 19:33N 37°48' W 122°17'0 0.0
2015-Aug-25 18:33N 37°48' W 122°17'6 6.5
2015-Aug-25 17:33N 37°52' W 122°23'4 4.0
2015-Aug-25 16:33N 37°56' W 122°25'4 3.6
2015-Aug-25 15:33N 37°52' W 122°24'5 4.6
2015-Aug-25 14:33N 37°48' W 122°21'0 0.0
2015-Aug-25 13:33N 37°48' W 122°21'1 1.0
2015-Aug-25 12:33N 37°49' W 122°19'0 0.3
2015-Aug-25 11:33N 37°49' W 122°20'1 1.1
2015-Aug-25 10:33N 37°49' W 122°19'0 0.0
2015-Aug-25 09:34N 37°49' W 122°19'0 0.0
2015-Aug-25 08:33N 37°49' W 122°19'0 0.0
2015-Aug-25 07:34N 37°49' W 122°19'0 0.0
2015-Aug-25 06:34N 37°49' W 122°19'0 0.0
2015-Aug-25 05:33N 37°49' W 122°19'0 0.0
2015-Aug-25 04:34N 37°49' W 122°19'5 5.0
2015-Aug-25 03:33N 37°52' W 122°24'3 3.3
2015-Aug-25 02:33N 37°55' W 122°22'2 1.9
2015-Aug-25 01:34N 37°55' W 122°24'5 5.5
2015-Aug-25 00:33N 37°50' W 122°22'2 1.6
2015-Aug-24 23:33N 37°48' W 122°20'1 0.6
2015-Aug-24 22:33N 37°49' W 122°20'1 0.9
2015-Aug-24 21:33N 37°49' W 122°19'0 0.1
2015-Aug-24 20:33N 37°49' W 122°19'0 0.0
2015-Aug-24 19:33N 37°49' W 122°19'0 0.0
2015-Aug-24 18:33N 37°49' W 122°19'2 1.7
2015-Aug-24 17:33N 37°48' W 122°19'1 0.9
2015-Aug-24 16:33N 37°48' W 122°17'2 1.9
2015-Aug-24 15:33N 37°49' W 122°19'1 0.5
2015-Aug-24 14:33N 37°49' W 122°19'0 0.0
2015-Aug-24 13:34N 37°49' W 122°19'0 0.0
2015-Aug-24 12:33N 37°49' W 122°19'0 0.0
2015-Aug-24 11:33N 37°49' W 122°19'0 0.0
2015-Aug-24 10:33N 37°49' W 122°19'0 0.0
2015-Aug-24 09:34N 37°49' W 122°19'0 0.0
2015-Aug-24 08:34N 37°49' W 122°19'0 0.0
2015-Aug-24 07:33N 37°49' W 122°19'0 0.0
2015-Aug-24 06:34N 37°49' W 122°19'0 0.0
2015-Aug-24 05:34N 37°49' W 122°19'0 0.0
2015-Aug-24 04:33N 37°49' W 122°19'0 0.0
2015-Aug-24 03:34N 37°49' W 122°19'0 0.0
2015-Aug-24 02:34N 37°49' W 122°19'0 0.0
2015-Aug-24 01:33N 37°49' W 122°19'0 0.0
2015-Aug-24 00:34N 37°49' W 122°19'0 0.0
2015-Aug-23 23:34N 37°49' W 122°19'0 0.0
2015-Aug-23 22:33N 37°49' W 122°19'0 0.0
2015-Aug-23 21:34N 37°49' W 122°19'0 0.0
2015-Aug-23 20:34N 37°49' W 122°19'0 0.0
2015-Aug-23 19:34N 37°49' W 122°19'0 0.0
2015-Aug-23 18:33N 37°49' W 122°19'0 0.0
2015-Aug-23 17:34N 37°49' W 122°19'0 0.0
2015-Aug-23 16:34N 37°49' W 122°19'0 0.0
2015-Aug-23 15:34N 37°49' W 122°19'0 0.0
2015-Aug-23 14:33N 37°49' W 122°19'0 0.2
2015-Aug-23 13:33N 37°49' W 122°19'1 1.3
2015-Aug-23 12:33N 37°49' W 122°20'2 1.5
2015-Aug-23 11:33N 37°49' W 122°19'0 0.0
2015-Aug-23 10:33N 37°49' W 122°19'0 0.0
2015-Aug-23 09:33N 37°49' W 122°19'0 0.0
2015-Aug-23 08:33N 37°49' W 122°19'0 0.0
2015-Aug-23 07:33N 37°49' W 122°19'0 0.0
2015-Aug-23 06:33N 37°49' W 122°19'0 0.0
2015-Aug-23 05:33N 37°49' W 122°19'0 0.0
2015-Aug-23 04:33N 37°49' W 122°19'0 0.0
2015-Aug-23 03:33N 37°49' W 122°19'0 0.0
2015-Aug-23 02:33N 37°49' W 122°19'0 0.0
2015-Aug-23 01:33N 37°49' W 122°19'0 0.0
2015-Aug-23 00:33N 37°49' W 122°19'0 0.0
2015-Aug-22 23:33N 37°49' W 122°19'1 1.0
2015-Aug-22 22:33N 37°49' W 122°20'1 0.7
2015-Aug-22 21:33N 37°48' W 122°21'7 6.7
2015-Aug-22 20:34N 37°54' W 122°25'2 2.4
2015-Aug-22 19:33N 37°54' W 122°22'5 4.9
2015-Aug-22 18:33N 37°49' W 122°22'2 2.3
2015-Aug-22 17:33N 37°49' W 122°19'0 0.0
2015-Aug-22 16:33N 37°49' W 122°19'0 0.0
2015-Aug-22 15:33N 37°49' W 122°19'0 0.0
2015-Aug-22 14:33N 37°49' W 122°19'0 0.0
2015-Aug-22 13:33N 37°49' W 122°19'0 0.5
2015-Aug-22 12:34N 37°49' W 122°19'6 6.4
2015-Aug-22 11:34N 37°54' W 122°23'1 1.1
2015-Aug-22 10:34N 37°54' W 122°22'2 2.4
2015-Aug-22 09:34N 37°54' W 122°25'1 1.5
2015-Aug-22 08:34N 37°54' W 122°23'0 0.0
2015-Aug-22 07:34N 37°54' W 122°23'0 0.0
2015-Aug-22 06:34N 37°54' W 122°23'0 0.0
2015-Aug-22 05:34N 37°54' W 122°23'0 0.0
2015-Aug-22 04:34N 37°54' W 122°23'0 0.0
2015-Aug-22 03:34N 37°54' W 122°23'1 1.1
2015-Aug-22 02:34N 37°55' W 122°22'6 6.1
2015-Aug-22 01:33N 37°49' W 122°20'1 1.2
2015-Aug-22 00:33N 37°49' W 122°19'0 0.0
2015-Aug-21 23:33N 37°49' W 122°19'0 0.0
2015-Aug-21 22:33N 37°49' W 122°19'0 0.0
2015-Aug-21 21:33N 37°49' W 122°19'0 0.0
2015-Aug-21 20:33N 37°49' W 122°19'0 0.0
2015-Aug-21 19:33N 37°49' W 122°19'0 0.0
2015-Aug-21 18:33N 37°49' W 122°19'0 0.0
2015-Aug-21 17:33N 37°49' W 122°19'0 0.0
2015-Aug-21 16:34N 37°49' W 122°19'0 0.0
2015-Aug-21 15:33N 37°49' W 122°19'0 0.0
2015-Aug-21 14:33N 37°49' W 122°19'0 0.0
2015-Aug-21 13:33N 37°49' W 122°19'0 0.0
2015-Aug-21 12:33N 37°49' W 122°19'0 0.0
2015-Aug-21 11:33N 37°49' W 122°19'0 0.0
2015-Aug-21 10:33N 37°49' W 122°19'0 0.0
2015-Aug-21 09:33N 37°49' W 122°19'0 0.0
2015-Aug-21 08:33N 37°49' W 122°19'0 0.0
2015-Aug-21 07:33N 37°49' W 122°19'0 0.0
2015-Aug-21 06:33N 37°49' W 122°19'0 0.0
2015-Aug-21 05:33N 37°49' W 122°19'0 0.0
2015-Aug-21 04:33N 37°49' W 122°19'  

Dump ship's entire track history